sensor_id;sensor_type;location;lat;lon;timestamp;pressure;altitude;pressure_sealevel;temperature;humidity
60373;BME280;46216;52.220;5.134;2022-12-18T00:01:38;103021.75;;;-2.19;100.00
60373;BME280;46216;52.220;5.134;2022-12-18T00:04:06;103011.25;;;-2.23;100.00
60373;BME280;46216;52.220;5.134;2022-12-18T00:06:33;103012.09;;;-2.24;100.00
60373;BME280;46216;52.220;5.134;2022-12-18T00:09:01;103019.03;;;-2.26;100.00
60373;BME280;46216;52.220;5.134;2022-12-18T00:11:29;103017.25;;;-2.30;100.00
60373;BME280;46216;52.220;5.134;2022-12-18T00:13:56;103017.25;;;-2.30;100.00
60373;BME280;46216;52.220;5.134;2022-12-18T00:16:24;103015.53;;;-2.28;100.00
60373;BME280;46216;52.220;5.134;2022-12-18T00:18:52;103012.06;;;-2.27;100.00
60373;BME280;46216;52.220;5.134;2022-12-18T00:21:18;103015.56;;;-2.27;100.00
60373;BME280;46216;52.220;5.134;2022-12-18T00:23:44;103013.81;;;-2.26;100.00
60373;BME280;46216;52.220;5.134;2022-12-18T00:26:16;103015.53;;;-2.28;100.00
60373;BME280;46216;52.220;5.134;2022-12-18T00:28:42;103014.69;;;-2.26;100.00
60373;BME280;46216;52.220;5.134;2022-12-18T00:31:17;103014.69;;;-2.27;100.00
60373;BME280;46216;52.220;5.134;2022-12-18T00:33:43;103018.06;;;-2.33;100.00
60373;BME280;46216;52.220;5.134;2022-12-18T00:36:18;103007.53;;;-2.39;100.00
60373;BME280;46216;52.220;5.134;2022-12-18T00:38:44;103004.91;;;-2.41;100.00
60373;BME280;46216;52.220;5.134;2022-12-18T00:41:11;103005.69;;;-2.45;100.00
60373;BME280;46216;52.220;5.134;2022-12-18T00:43:38;102999.41;;;-2.56;100.00
60373;BME280;46216;52.220;5.134;2022-12-18T00:46:04;103001.16;;;-2.58;100.00
60373;BME280;46216;52.220;5.134;2022-12-18T00:48:30;103013.34;;;-2.57;100.00
60373;BME280;46216;52.220;5.134;2022-12-18T00:50:55;103012.41;;;-2.60;100.00
60373;BME280;46216;52.220;5.134;2022-12-18T00:53:21;103015.03;;;-2.59;100.00
60373;BME280;46216;52.220;5.134;2022-12-18T00:55:46;103009.81;;;-2.59;100.00
60373;BME280;46216;52.220;5.134;2022-12-18T00:58:13;103006.38;;;-2.58;100.00
60373;BME280;46216;52.220;5.134;2022-12-18T01:00:38;103001.16;;;-2.58;100.00
60373;BME280;46216;52.220;5.134;2022-12-18T01:03:05;103004.59;;;-2.59;100.00
60373;BME280;46216;52.220;5.134;2022-12-18T01:05:31;103015.03;;;-2.59;100.00
60373;BME280;46216;52.220;5.134;2022-12-18T01:07:56;103014.16;;;-2.59;100.00
60373;BME280;46216;52.220;5.134;2022-12-18T01:10:22;103008.88;;;-2.63;100.00
60373;BME280;46216;52.220;5.134;2022-12-18T01:12:48;103014.03;;;-2.67;100.00
60373;BME280;46216;52.220;5.134;2022-12-18T01:15:14;103005.31;;;-2.68;100.00
60373;BME280;46216;52.220;5.134;2022-12-18T01:17:39;103006.25;;;-2.64;100.00
60373;BME280;46216;52.220;5.134;2022-12-18T01:20:05;103003.53;;;-2.70;100.00
60373;BME280;46216;52.220;5.134;2022-12-18T01:22:31;103006.97;;;-2.73;100.00
60373;BME280;46216;52.220;5.134;2022-12-18T01:24:59;103002.63;;;-2.72;100.00
60373;BME280;46216;52.220;5.134;2022-12-18T01:27:24;103005.22;;;-2.74;100.00
60373;BME280;46216;52.220;5.134;2022-12-18T01:29:51;103011.25;;;-2.76;100.00
60373;BME280;46216;52.220;5.134;2022-12-18T01:32:16;103011.13;;;-2.82;100.00
60373;BME280;46216;52.220;5.134;2022-12-18T01:34:41;103020.63;;;-2.88;100.00
60373;BME280;46216;52.220;5.134;2022-12-18T01:37:07;103017.09;;;-2.91;100.00
60373;BME280;46216;52.220;5.134;2022-12-18T01:39:33;103020.53;;;-2.92;100.00
60373;BME280;46216;52.220;5.134;2022-12-18T01:42:02;103007.53;;;-2.91;100.00
60373;BME280;46216;52.220;5.134;2022-12-18T01:45:35;103004.00;;;-2.93;100.00
60373;BME280;46216;52.220;5.134;2022-12-18T01:47:47;103004.00;;;-2.93;100.00
60373;BME280;46216;52.220;5.134;2022-12-18T01:50:34;103011.75;;;-2.99;100.00
60373;BME280;46216;52.220;5.134;2022-12-18T01:53:06;103016.06;;;-2.99;100.00
60373;BME280;46216;52.220;5.134;2022-12-18T01:55:37;103029.09;;;-2.99;100.00
60373;BME280;46216;52.220;5.134;2022-12-18T01:58:05;103034.31;;;-2.99;100.00
60373;BME280;46216;52.220;5.134;2022-12-18T02:00:31;103049.13;;;-2.98;100.00
60373;BME280;46216;52.220;5.134;2022-12-18T02:02:57;103042.19;;;-2.98;100.00
60373;BME280;46216;52.220;5.134;2022-12-18T02:05:31;103045.66;;;-2.99;100.00
60373;BME280;46216;52.220;5.134;2022-12-18T02:08:11;103048.28;;;-2.97;100.00
60373;BME280;46216;52.220;5.134;2022-12-18T02:13:17;103066.53;;;-2.99;100.00
60373;BME280;46216;52.220;5.134;2022-12-18T02:16:02;103068.22;;;-3.01;100.00
60373;BME280;46216;52.220;5.134;2022-12-18T02:18:34;103073.38;;;-3.04;100.00
60373;BME280;46216;52.220;5.134;2022-12-18T02:23:47;103068.03;;;-3.10;100.00
60373;BME280;46216;52.220;5.134;2022-12-18T02:26:37;103074.09;;;-3.11;100.00
60373;BME280;46216;52.220;5.134;2022-12-18T02:29:25;103065.47;;;-3.08;100.00
60373;BME280;46216;52.220;5.134;2022-12-18T02:31:58;103062.91;;;-3.05;100.00
60373;BME280;46216;52.220;5.134;2022-12-18T02:34:29;103045.53;;;-3.05;100.00
60373;BME280;46216;52.220;5.134;2022-12-18T02:36:58;103049.88;;;-3.05;100.00
60373;BME280;46216;52.220;5.134;2022-12-18T02:39:26;103052.50;;;-3.04;100.00
60373;BME280;46216;52.220;5.134;2022-12-18T02:41:52;103043.84;;;-3.01;100.00
60373;BME280;46216;52.220;5.134;2022-12-18T02:44:17;103029.88;;;-3.05;100.00
60373;BME280;46216;52.220;5.134;2022-12-18T02:46:46;103022.94;;;-3.04;100.00
60373;BME280;46216;52.220;5.134;2022-12-18T02:49:44;103028.09;;;-3.06;100.00
60373;BME280;46216;52.220;5.134;2022-12-18T02:57:46;103015.03;;;-3.09;100.00
60373;BME280;46216;52.220;5.134;2022-12-18T03:00:18;103009.78;;;-3.11;100.00
60373;BME280;46216;52.220;5.134;2022-12-18T03:02:55;103008.84;;;-3.14;100.00
60373;BME280;46216;52.220;5.134;2022-12-18T03:05:38;103007.03;;;-3.18;100.00
60373;BME280;46216;52.220;5.134;2022-12-18T03:08:19;103006.09;;;-3.22;100.00
60373;BME280;46216;52.220;5.134;2022-12-18T03:10:54;102999.94;;;-3.25;100.00
60373;BME280;46216;52.220;5.134;2022-12-18T03:13:31;103002.44;;;-3.30;100.00
60373;BME280;46216;52.220;5.134;2022-12-18T03:15:59;102997.16;;;-3.33;100.00
60373;BME280;46216;52.220;5.134;2022-12-18T03:18:44;102994.34;;;-3.44;100.00
60373;BME280;46216;52.220;5.134;2022-12-18T03:21:11;102986.47;;;-3.47;100.00
60373;BME280;46216;52.220;5.134;2022-12-18T03:23:42;102981.97;;;-3.54;100.00
60373;BME280;46216;52.220;5.134;2022-12-18T03:26:10;102985.44;;;-3.55;100.00
60373;BME280;46216;52.220;5.134;2022-12-18T03:28:42;102980.94;;;-3.62;100.00
60373;BME280;46216;52.220;5.134;2022-12-18T03:31:11;102979.16;;;-3.65;100.00
60373;BME280;46216;52.220;5.134;2022-12-18T03:33:51;102971.25;;;-3.69;100.00
60373;BME280;46216;52.220;5.134;2022-12-18T03:36:17;102976.41;;;-3.72;100.00
60373;BME280;46216;52.220;5.134;2022-12-18T03:38:43;102967.59;;;-3.77;100.00
60373;BME280;46216;52.220;5.134;2022-12-18T03:44:03;102966.50;;;-3.89;100.00
60373;BME280;46216;52.220;5.134;2022-12-18T03:46:40;102974.25;;;-3.92;100.00
60373;BME280;46216;52.220;5.134;2022-12-18T03:49:11;102969.84;;;-3.94;100.00
60373;BME280;46216;52.220;5.134;2022-12-18T03:51:50;102971.41;;;-4.02;100.00
60373;BME280;46216;52.220;5.134;2022-12-18T03:54:17;102969.59;;;-4.07;100.00
60373;BME280;46216;52.220;5.134;2022-12-18T03:56:51;102968.66;;;-4.10;100.00
60373;BME280;46216;52.220;5.134;2022-12-18T03:59:19;102966.84;;;-4.13;100.00
60373;BME280;46216;52.220;5.134;2022-12-18T04:01:47;102950.28;;;-4.16;100.00
60373;BME280;46216;52.220;5.134;2022-12-18T04:04:16;102951.06;;;-4.20;100.00
60373;BME280;46216;52.220;5.134;2022-12-18T04:06:43;102952.78;;;-4.21;100.00
60373;BME280;46216;52.220;5.134;2022-12-18T04:09:10;102947.47;;;-4.25;100.00
60373;BME280;46216;52.220;5.134;2022-12-18T04:11:35;102935.22;;;-4.30;100.00
60373;BME280;46216;52.220;5.134;2022-12-18T04:14:01;102931.69;;;-4.32;100.00
60373;BME280;46216;52.220;5.134;2022-12-18T04:16:27;102929.94;;;-4.34;100.00
60373;BME280;46216;52.220;5.134;2022-12-18T04:18:53;102936.81;;;-4.36;100.00
60373;BME280;46216;52.220;5.134;2022-12-18T04:21:19;102928.06;;;-4.40;100.00
60373;BME280;46216;52.220;5.134;2022-12-18T04:23:44;102934.91;;;-4.45;100.00
60373;BME280;46216;52.220;5.134;2022-12-18T04:26:10;102931.38;;;-4.47;100.00
60373;BME280;46216;52.220;5.134;2022-12-18T04:28:35;102937.28;;;-4.54;100.00
60373;BME280;46216;52.220;5.134;2022-12-18T04:31:01;102942.44;;;-4.56;100.00
60373;BME280;46216;52.220;5.134;2022-12-18T04:33:26;102939.03;;;-4.53;100.00
60373;BME280;46216;52.220;5.134;2022-12-18T04:35:51;102943.25;;;-4.58;100.00
60373;BME280;46216;52.220;5.134;2022-12-18T04:38:17;102949.28;;;-4.59;100.00
60373;BME280;46216;52.220;5.134;2022-12-18T04:40:43;102963.16;;;-4.59;100.00
60373;BME280;46216;52.220;5.134;2022-12-18T04:43:08;102962.22;;;-4.62;100.00
60373;BME280;46216;52.220;5.134;2022-12-18T04:45:33;102963.94;;;-4.63;100.00
60373;BME280;46216;52.220;5.134;2022-12-18T04:48:00;102960.38;;;-4.68;100.00
60373;BME280;46216;52.220;5.134;2022-12-18T04:50:26;102966.44;;;-4.67;100.00
60373;BME280;46216;52.220;5.134;2022-12-18T04:52:55;102964.63;;;-4.71;100.00
60373;BME280;46216;52.220;5.134;2022-12-18T04:55:20;102975.84;;;-4.72;100.00
60373;BME280;46216;52.220;5.134;2022-12-18T04:57:45;102980.16;;;-4.74;100.00
60373;BME280;46216;52.220;5.134;2022-12-18T05:00:11;102979.22;;;-4.77;100.00
60373;BME280;46216;52.220;5.134;2022-12-18T05:02:37;102986.94;;;-4.80;100.00
60373;BME280;46216;52.220;5.134;2022-12-18T05:05:03;102986.03;;;-4.82;100.00
60373;BME280;46216;52.220;5.134;2022-12-18T05:07:28;102984.19;;;-4.86;100.00
60373;BME280;46216;52.220;5.134;2022-12-18T05:09:54;102993.75;;;-4.85;100.00
60373;BME280;46216;52.220;5.134;2022-12-18T05:12:19;102989.38;;;-4.86;100.00
60373;BME280;46216;52.220;5.134;2022-12-18T05:14:44;102987.63;;;-4.87;100.00
60373;BME280;46216;52.220;5.134;2022-12-18T05:17:10;102994.53;;;-4.89;100.00
60373;BME280;46216;52.220;5.134;2022-12-18T05:19:35;102988.22;;;-4.97;100.00
60373;BME280;46216;52.220;5.134;2022-12-18T05:22:03;102994.28;;;-4.98;100.00
60373;BME280;46216;52.220;5.134;2022-12-18T05:24:28;103005.53;;;-4.99;100.00
60373;BME280;46216;52.220;5.134;2022-12-18T05:26:54;103019.41;;;-4.98;100.00
60373;BME280;46216;52.220;5.134;2022-12-18T05:29:19;103014.13;;;-5.02;100.00
60373;BME280;46216;52.220;5.134;2022-12-18T05:31:45;103010.59;;;-5.04;100.00
60373;BME280;46216;52.220;5.134;2022-12-18T05:34:10;103011.44;;;-5.05;100.00
60373;BME280;46216;52.220;5.134;2022-12-18T05:36:35;102999.28;;;-5.06;100.00
60373;BME280;46216;52.220;5.134;2022-12-18T05:39:01;102988.75;;;-5.10;100.00
60373;BME280;46216;52.220;5.134;2022-12-18T05:41:27;102983.59;;;-5.09;100.00
60373;BME280;46216;52.220;5.134;2022-12-18T05:43:52;102982.69;;;-5.11;100.00
60373;BME280;46216;52.220;5.134;2022-12-18T05:46:20;102985.34;;;-5.09;100.00
60373;BME280;46216;52.220;5.134;2022-12-18T05:48:46;102971.41;;;-5.11;100.00
60373;BME280;46216;52.220;5.134;2022-12-18T05:51:15;102975.75;;;-5.10;100.00
60373;BME280;46216;52.220;5.134;2022-12-18T05:53:42;102969.66;;;-5.12;100.00
60373;BME280;46216;52.220;5.134;2022-12-18T05:56:10;102957.38;;;-5.16;100.00
60373;BME280;46216;52.220;5.134;2022-12-18T05:58:36;102953.88;;;-5.18;100.00
60373;BME280;46216;52.220;5.134;2022-12-18T06:01:19;102959.00;;;-5.21;100.00
60373;BME280;46216;52.220;5.134;2022-12-18T06:03:44;102961.59;;;-5.21;100.00
60373;BME280;46216;52.220;5.134;2022-12-18T06:06:18;102970.25;;;-5.22;100.00
60373;BME280;46216;52.220;5.134;2022-12-18T06:08:44;102961.50;;;-5.26;100.00
60373;BME280;46216;52.220;5.134;2022-12-18T06:11:10;102945.75;;;-5.31;100.00
60373;BME280;46216;52.220;5.134;2022-12-18T06:13:37;102944.84;;;-5.33;100.00
60373;BME280;46216;52.220;5.134;2022-12-18T06:16:04;102935.25;;;-5.35;100.00
60373;BME280;46216;52.220;5.134;2022-12-18T06:18:30;102947.38;;;-5.34;100.00
60373;BME280;46216;52.220;5.134;2022-12-18T06:20:56;102950.94;;;-5.32;100.00
60373;BME280;46216;52.220;5.134;2022-12-18T06:23:22;102954.41;;;-5.32;100.00
60373;BME280;46216;52.220;5.134;2022-12-18T06:25:47;102947.38;;;-5.34;100.00
60373;BME280;46216;52.220;5.134;2022-12-18T06:28:12;102953.53;;;-5.31;100.00
60373;BME280;46216;52.220;5.134;2022-12-18T06:30:38;102947.53;;;-5.30;100.00
60373;BME280;46216;52.220;5.134;2022-12-18T06:33:03;102945.81;;;-5.29;100.00
60373;BME280;46216;52.220;5.134;2022-12-18T06:35:28;102939.75;;;-5.30;100.00
60373;BME280;46216;52.220;5.134;2022-12-18T06:37:53;102932.69;;;-5.34;100.00
60373;BME280;46216;52.220;5.134;2022-12-18T06:40:19;102928.34;;;-5.33;100.00
60373;BME280;46216;52.220;5.134;2022-12-18T06:42:44;102923.13;;;-5.35;100.00
60373;BME280;46216;52.220;5.134;2022-12-18T06:45:09;102908.38;;;-5.36;100.00
60373;BME280;46216;52.220;5.134;2022-12-18T06:47:36;102898.78;;;-5.38;100.00
60373;BME280;46216;52.220;5.134;2022-12-18T06:50:02;102901.41;;;-5.37;100.00
60373;BME280;46216;52.220;5.134;2022-12-18T06:52:27;102906.56;;;-5.38;100.00
60373;BME280;46216;52.220;5.134;2022-12-18T06:54:52;102896.16;;;-5.40;100.00
60373;BME280;46216;52.220;5.134;2022-12-18T06:57:18;102896.00;;;-5.44;100.00
60373;BME280;46216;52.220;5.134;2022-12-18T06:59:43;102889.97;;;-5.43;100.00
60373;BME280;46216;52.220;5.134;2022-12-18T07:02:11;102889.09;;;-5.44;100.00
60373;BME280;46216;52.220;5.134;2022-12-18T07:04:37;102890.88;;;-5.43;100.00
60373;BME280;46216;52.220;5.134;2022-12-18T07:07:02;102884.78;;;-5.43;100.00
60373;BME280;46216;52.220;5.134;2022-12-18T07:09:28;102892.53;;;-5.45;100.00
60373;BME280;46216;52.220;5.134;2022-12-18T07:11:53;102876.88;;;-5.48;100.00
60373;BME280;46216;52.220;5.134;2022-12-18T07:14:19;102885.59;;;-5.46;100.00
60373;BME280;46216;52.220;5.134;2022-12-18T07:16:44;102882.06;;;-5.48;100.00
60373;BME280;46216;52.220;5.134;2022-12-18T07:19:09;102881.19;;;-5.49;100.00
60373;BME280;46216;52.220;5.134;2022-12-18T07:21:35;102881.22;;;-5.47;100.00
60373;BME280;46216;52.220;5.134;2022-12-18T07:24:00;102872.56;;;-5.48;100.00
60373;BME280;46216;52.220;5.134;2022-12-18T07:26:25;102881.28;;;-5.45;100.00
60373;BME280;46216;52.220;5.134;2022-12-18T07:28:54;102876.94;;;-5.45;100.00
60373;BME280;46216;52.220;5.134;2022-12-18T07:31:21;102875.28;;;-5.43;100.00
60373;BME280;46216;52.220;5.134;2022-12-18T07:33:47;102870.09;;;-5.43;100.00
60373;BME280;46216;52.220;5.134;2022-12-18T07:36:13;102857.03;;;-5.46;100.00
60373;BME280;46216;52.220;5.134;2022-12-18T07:38:39;102862.31;;;-5.41;100.00
60373;BME280;46216;52.220;5.134;2022-12-18T07:41:10;102852.81;;;-5.41;100.00
60373;BME280;46216;52.220;5.134;2022-12-18T07:43:36;102842.41;;;-5.41;100.00
60373;BME280;46216;52.220;5.134;2022-12-18T07:46:02;102839.00;;;-5.40;100.00
60373;BME280;46216;52.220;5.134;2022-12-18T07:48:28;102837.22;;;-5.41;100.00
60373;BME280;46216;52.220;5.134;2022-12-18T07:51:01;102824.22;;;-5.41;100.00
60373;BME280;46216;52.220;5.134;2022-12-18T07:53:27;102833.84;;;-5.37;100.00
60373;BME280;46216;52.220;5.134;2022-12-18T07:55:57;102826.97;;;-5.36;100.00
60373;BME280;46216;52.220;5.134;2022-12-18T07:58:22;102829.56;;;-5.36;100.00
60373;BME280;46216;52.220;5.134;2022-12-18T08:00:47;102824.34;;;-5.36;100.00
60373;BME280;46216;52.220;5.134;2022-12-18T08:03:13;102824.41;;;-5.33;100.00
60373;BME280;46216;52.220;5.134;2022-12-18T08:05:38;102812.25;;;-5.34;100.00
60373;BME280;46216;52.220;5.134;2022-12-18T08:08:04;102817.53;;;-5.31;100.00
60373;BME280;46216;52.220;5.134;2022-12-18T08:10:29;102821.09;;;-5.28;100.00
60373;BME280;46216;52.220;5.134;2022-12-18T08:12:54;102828.94;;;-5.26;100.00
60373;BME280;46216;52.220;5.134;2022-12-18T08:15:20;102829.03;;;-5.21;100.00
60373;BME280;46216;52.220;5.134;2022-12-18T08:17:45;102841.25;;;-5.17;100.00
60373;BME280;46216;52.220;5.134;2022-12-18T08:20:11;102855.19;;;-5.15;100.00
60373;BME280;46216;52.220;5.134;2022-12-18T08:22:37;102856.94;;;-5.14;100.00
60373;BME280;46216;52.220;5.134;2022-12-18T08:25:03;102855.34;;;-5.09;100.00
60373;BME280;46216;52.220;5.134;2022-12-18T08:27:28;102852.78;;;-5.08;100.00
60373;BME280;46216;52.220;5.134;2022-12-18T08:29:54;102862.31;;;-5.07;100.00
60373;BME280;46216;52.220;5.134;2022-12-18T08:32:20;102852.78;;;-5.08;100.00
60373;BME280;46216;52.220;5.134;2022-12-18T08:34:45;102868.44;;;-5.05;100.00
60373;BME280;46216;52.220;5.134;2022-12-18T08:37:11;102872.94;;;-4.99;100.00
60373;BME280;46216;52.220;5.134;2022-12-18T08:39:36;102859.94;;;-4.97;100.00
60373;BME280;46216;52.220;5.134;2022-12-18T08:42:01;102853.06;;;-4.95;100.00
60373;BME280;46216;52.220;5.134;2022-12-18T08:44:45;102835.81;;;-4.92;100.00
60373;BME280;46216;52.220;5.134;2022-12-18T08:47:11;102837.59;;;-4.89;100.00
60373;BME280;46216;52.220;5.134;2022-12-18T08:49:36;102836.78;;;-4.87;100.00
60373;BME280;46216;52.220;5.134;2022-12-18T08:52:02;102838.59;;;-4.83;100.00
60373;BME280;46216;52.220;5.134;2022-12-18T08:54:28;102840.47;;;-4.79;100.00
60373;BME280;46216;52.220;5.134;2022-12-18T08:56:54;102844.88;;;-4.74;100.00
60373;BME280;46216;52.220;5.134;2022-12-18T08:59:19;102843.31;;;-4.68;100.00
60373;BME280;46216;52.220;5.134;2022-12-18T09:01:46;102831.31;;;-4.61;100.00
60373;BME280;46216;52.220;5.134;2022-12-18T09:04:12;102819.34;;;-4.53;100.00
60373;BME280;46216;52.220;5.134;2022-12-18T09:06:38;102818.59;;;-4.47;100.00
60373;BME280;46216;52.220;5.134;2022-12-18T09:09:04;102823.09;;;-4.40;100.00
60373;BME280;46216;52.220;5.134;2022-12-18T09:11:31;102824.09;;;-4.34;100.00
60373;BME280;46216;52.220;5.134;2022-12-18T09:13:57;102837.31;;;-4.24;100.00
60373;BME280;46216;52.220;5.134;2022-12-18T09:16:24;102834.81;;;-4.18;100.00
60373;BME280;46216;52.220;5.134;2022-12-18T09:18:50;102832.38;;;-4.11;100.00
60373;BME280;46216;52.220;5.134;2022-12-18T09:21:17;102828.16;;;-4.04;100.00
60373;BME280;46216;52.220;5.134;2022-12-18T09:23:43;102824.84;;;-3.97;100.00
60373;BME280;46216;52.220;5.134;2022-12-18T09:26:09;102831.91;;;-3.90;100.00
60373;BME280;46216;52.220;5.134;2022-12-18T09:28:35;102833.78;;;-3.83;100.00
60373;BME280;46216;52.220;5.134;2022-12-18T09:31:07;102814.75;;;-3.78;100.00
60373;BME280;46216;52.220;5.134;2022-12-18T09:33:34;102814.91;;;-3.69;100.00
60373;BME280;46216;52.220;5.134;2022-12-18T09:36:02;102811.50;;;-3.65;100.00
60373;BME280;46216;52.220;5.134;2022-12-18T09:38:29;102814.25;;;-3.58;100.00
60373;BME280;46216;52.220;5.134;2022-12-18T09:40:59;102810.84;;;-3.53;100.00
60373;BME280;46216;52.220;5.134;2022-12-18T09:43:47;102802.25;;;-3.49;100.00
60373;BME280;46216;52.220;5.134;2022-12-18T09:46:37;102821.47;;;-3.41;100.00
60373;BME280;46216;52.220;5.134;2022-12-18T09:49:09;102813.78;;;-3.35;100.00
60373;BME280;46216;52.220;5.134;2022-12-18T09:51:46;102817.34;;;-3.28;100.00
60373;BME280;46216;52.220;5.134;2022-12-18T09:54:16;102800.09;;;-3.20;100.00
60373;BME280;46216;52.220;5.134;2022-12-18T09:56:43;102789.75;;;-3.14;100.00
60373;BME280;46216;52.220;5.134;2022-12-18T09:59:23;102780.25;;;-3.11;100.00
60373;BME280;46216;52.220;5.134;2022-12-18T10:01:49;102772.56;;;-3.01;100.00
60373;BME280;46216;52.220;5.134;2022-12-18T10:04:14;102770.00;;;-2.98;100.00
60373;BME280;46216;52.220;5.134;2022-12-18T10:07:02;102776.09;;;-2.96;100.00
60373;BME280;46216;52.220;5.134;2022-12-18T10:09:51;102780.59;;;-2.88;100.00
60373;BME280;46216;52.220;5.134;2022-12-18T10:12:34;102792.84;;;-2.82;100.00
60373;BME280;46216;52.220;5.134;2022-12-18T10:15:19;102803.34;;;-2.76;100.00
60373;BME280;46216;52.220;5.134;2022-12-18T10:20:54;102808.81;;;-2.60;100.00
60373;BME280;46216;52.220;5.134;2022-12-18T10:25:55;102776.75;;;-2.49;100.00
60373;BME280;46216;52.220;5.134;2022-12-18T10:28:25;102774.19;;;-2.46;100.00
60373;BME280;46216;52.220;5.134;2022-12-18T10:30:51;102776.91;;;-2.36;100.00
60373;BME280;46216;52.220;5.134;2022-12-18T10:33:23;102776.94;;;-2.32;100.00
60373;BME280;46216;52.220;5.134;2022-12-18T10:35:50;102775.28;;;-2.25;100.00
60373;BME280;46216;52.220;5.134;2022-12-18T10:41:01;102773.66;;;-2.17;100.00
60373;BME280;46216;52.220;5.134;2022-12-18T10:43:34;102761.53;;;-2.09;100.00
60373;BME280;46216;52.220;5.134;2022-12-18T10:48:40;102762.53;;;-1.99;100.00
60373;BME280;46216;52.220;5.134;2022-12-18T10:51:06;102764.34;;;-1.94;100.00
60373;BME280;46216;52.220;5.134;2022-12-18T10:53:34;102754.75;;;-1.92;100.00
60373;BME280;46216;52.220;5.134;2022-12-18T10:56:03;102753.94;;;-1.84;100.00
60373;BME280;46216;52.220;5.134;2022-12-18T10:58:38;102740.03;;;-1.80;100.00
60373;BME280;46216;52.220;5.134;2022-12-18T11:01:17;102725.25;;;-1.77;100.00
60373;BME280;46216;52.220;5.134;2022-12-18T11:06:20;102721.00;;;-1.67;100.00
60373;BME280;46216;52.220;5.134;2022-12-18T11:09:20;102727.09;;;-1.67;100.00
60373;BME280;46216;52.220;5.134;2022-12-18T11:11:54;102722.78;;;-1.60;100.00
60373;BME280;46216;52.220;5.134;2022-12-18T11:14:24;102715.88;;;-1.55;100.00
60373;BME280;46216;52.220;5.134;2022-12-18T11:16:51;102717.63;;;-1.52;100.00
60373;BME280;46216;52.220;5.134;2022-12-18T11:19:36;102720.28;;;-1.48;100.00
60373;BME280;46216;52.220;5.134;2022-12-18T11:22:24;102697.66;;;-1.44;100.00
60373;BME280;46216;52.220;5.134;2022-12-18T11:25:18;102697.66;;;-1.39;100.00
60373;BME280;46216;52.220;5.134;2022-12-18T11:31:27;102701.25;;;-1.28;100.00
60373;BME280;46216;52.220;5.134;2022-12-18T11:36:45;102708.28;;;-1.18;100.00
60373;BME280;46216;52.220;5.134;2022-12-18T11:39:35;102704.81;;;-1.14;100.00
60373;BME280;46216;52.220;5.134;2022-12-18T11:42:20;102704.81;;;-1.09;100.00
60373;BME280;46216;52.220;5.134;2022-12-18T11:49:49;102684.00;;;-0.94;100.00
60373;BME280;46216;52.220;5.134;2022-12-18T11:52:39;102677.91;;;-0.90;100.00
60373;BME280;46216;52.220;5.134;2022-12-18T11:55:11;102659.59;;;-0.87;100.00
60373;BME280;46216;52.220;5.134;2022-12-18T12:01:13;102643.88;;;-0.82;100.00
60373;BME280;46216;52.220;5.134;2022-12-18T12:07:07;102631.72;;;-0.77;100.00
60373;BME280;46216;52.220;5.134;2022-12-18T12:15:12;102628.22;;;-0.72;100.00
60373;BME280;46216;52.220;5.134;2022-12-18T12:18:00;102617.75;;;-0.68;100.00
60373;BME280;46216;52.220;5.134;2022-12-18T12:20:51;102611.69;;;-0.64;100.00
60373;BME280;46216;52.220;5.134;2022-12-18T12:26:35;102612.56;;;-0.56;100.00
60373;BME280;46216;52.220;5.134;2022-12-18T12:34:45;102596.84;;;-0.49;100.00
60373;BME280;46216;52.220;5.134;2022-12-18T12:37:45;102596.00;;;-0.47;100.00
60373;BME280;46216;52.220;5.134;2022-12-18T12:40:18;102589.88;;;-0.43;100.00
60373;BME280;46216;52.220;5.134;2022-12-18T12:43:00;102581.16;;;-0.39;100.00
60373;BME280;46216;52.220;5.134;2022-12-18T12:48:19;102573.28;;;-0.36;100.00
60373;BME280;46216;52.220;5.134;2022-12-18T12:50:47;102570.69;;;-0.33;100.00
60373;BME280;46216;52.220;5.134;2022-12-18T12:53:21;102562.78;;;-0.38;100.00
60373;BME280;46216;52.220;5.134;2022-12-18T12:55:47;102574.16;;;-0.31;100.00
60373;BME280;46216;52.220;5.134;2022-12-18T13:00:49;102562.81;;;-0.29;100.00
60373;BME280;46216;52.220;5.134;2022-12-18T13:03:31;102557.56;;;-0.26;100.00
60373;BME280;46216;52.220;5.134;2022-12-18T13:06:07;102559.31;;;-0.25;100.00
60373;BME280;46216;52.220;5.134;2022-12-18T13:08:54;102553.22;;;-0.27;100.00
60373;BME280;46216;52.220;5.134;2022-12-18T13:11:49;102556.69;;;-0.26;100.00
60373;BME280;46216;52.220;5.134;2022-12-18T13:14:38;102564.56;;;-0.23;100.00
60373;BME280;46216;52.220;5.134;2022-12-18T13:19:49;102553.19;;;-0.22;100.00
60373;BME280;46216;52.220;5.134;2022-12-18T13:22:35;102550.59;;;-0.19;100.00
60373;BME280;46216;52.220;5.134;2022-12-18T13:25:03;102554.06;;;-0.18;100.00
60373;BME280;46216;52.220;5.134;2022-12-18T13:30:52;102533.97;;;-0.18;100.00
60373;BME280;46216;52.220;5.134;2022-12-18T13:38:34;102509.53;;;-0.18;100.00
60373;BME280;46216;52.220;5.134;2022-12-18T13:41:02;102510.41;;;-0.16;100.00
60373;BME280;46216;52.220;5.134;2022-12-18T13:43:31;102493.81;;;-0.17;100.00
60373;BME280;46216;52.220;5.134;2022-12-18T13:46:18;102477.22;;;-0.19;100.00
60373;BME280;46216;52.220;5.134;2022-12-18T13:48:57;102485.06;;;-0.19;100.00
60373;BME280;46216;52.220;5.134;2022-12-18T13:51:24;102486.81;;;-0.18;100.00
60373;BME280;46216;52.220;5.134;2022-12-18T13:53:55;102486.81;;;-0.18;100.00
60373;BME280;46216;52.220;5.134;2022-12-18T13:56:33;102476.34;;;-0.19;100.00
60373;BME280;46216;52.220;5.134;2022-12-18T13:59:22;102474.59;;;-0.19;100.00
60373;BME280;46216;52.220;5.134;2022-12-18T14:04:24;102472.88;;;-0.17;100.00
60373;BME280;46216;52.220;5.134;2022-12-18T14:06:52;102465.00;;;-0.17;100.00
60373;BME280;46216;52.220;5.134;2022-12-18T14:09:23;102467.63;;;-0.17;100.00
60373;BME280;46216;52.220;5.134;2022-12-18T14:11:50;102470.22;;;-0.15;100.00
60373;BME280;46216;52.220;5.134;2022-12-18T14:14:17;102471.09;;;-0.15;100.00